createdAt,value
2022-09-27T00:02:19.860Z,11.52
2022-09-27T00:05:21.292Z,11.49
2022-09-27T00:08:22.710Z,11.46
2022-09-27T00:11:39.333Z,11.54
2022-09-27T00:14:40.925Z,11.42
2022-09-27T00:17:42.581Z,11.46
2022-09-27T00:20:43.955Z,11.44
2022-09-27T00:23:45.592Z,11.56
2022-09-27T00:26:48.240Z,11.59
2022-09-27T00:29:49.632Z,11.48
2022-09-27T00:32:52.887Z,11.53
2022-09-27T00:35:54.448Z,11.47
2022-09-27T00:38:56.650Z,11.58
2022-09-27T00:41:58.030Z,11.63
2022-09-27T00:45:13.767Z,11.59
2022-09-27T00:48:21.163Z,11.55
2022-09-27T00:51:22.781Z,11.63
2022-09-27T00:54:28.273Z,11.58
2022-09-27T00:57:29.862Z,11.56
2022-09-27T01:00:31.704Z,11.63
2022-09-27T01:04:05.874Z,11.60
2022-09-27T01:07:07.495Z,11.61
2022-09-27T01:10:09.563Z,11.47
2022-09-27T01:13:26.199Z,11.49
2022-09-27T01:16:40.852Z,11.48
2022-09-27T01:19:50.962Z,11.57
2022-09-27T01:23:22.095Z,11.50
2022-09-27T01:26:32.455Z,11.51
2022-09-27T01:30:08.284Z,11.50
2022-09-27T01:33:35.587Z,11.50
2022-09-27T01:36:52.928Z,11.39
2022-09-27T01:39:57.290Z,11.49
2022-09-27T01:43:18.396Z,11.55
2022-09-27T01:46:32.146Z,11.61
2022-09-27T01:49:59.232Z,11.53
2022-09-27T01:53:20.245Z,11.57
2022-09-27T01:56:49.593Z,11.50
2022-09-27T02:00:07.234Z,11.45
2022-09-27T02:03:24.354Z,11.55
2022-09-27T02:07:03.833Z,11.49
2022-09-27T02:10:16.379Z,11.51
2022-09-27T02:13:37.414Z,11.49
2022-09-27T02:17:24.493Z,11.43
2022-09-27T02:20:39.017Z,11.56
2022-09-27T02:23:48.813Z,11.47
2022-09-27T02:27:02.029Z,11.46
2022-09-27T02:30:08.033Z,11.46
2022-09-27T02:33:10.566Z,11.60
2022-09-27T02:36:12.409Z,11.50
2022-09-27T02:39:14.516Z,11.46
2022-09-27T02:42:16.109Z,11.50
2022-09-27T02:45:19.849Z,11.45
2022-09-27T02:48:37.134Z,11.36
2022-09-27T02:51:47.255Z,11.44
2022-09-27T02:55:06.412Z,11.39
2022-09-27T02:58:40.272Z,11.42
2022-09-27T03:02:13.527Z,11.40
2022-09-27T03:05:35.122Z,11.36
2022-09-27T03:08:38.348Z,11.42
2022-09-27T03:11:40.522Z,11.31
2022-09-27T03:14:41.923Z,11.40
2022-09-27T03:18:03.630Z,11.42
2022-09-27T03:21:33.878Z,11.39
2022-09-27T03:24:35.363Z,11.38
2022-09-27T03:27:37.157Z,11.37
2022-09-27T03:30:38.707Z,11.34
2022-09-27T03:33:40.890Z,11.30
2022-09-27T03:36:45.388Z,11.31
2022-09-27T03:39:46.802Z,11.14
2022-09-27T03:42:50.252Z,11.15
2022-09-27T03:45:51.830Z,11.25
2022-09-27T03:48:53.255Z,11.19
2022-09-27T03:51:54.663Z,11.18
2022-09-27T03:55:01.808Z,11.28
2022-09-27T03:58:03.732Z,11.36
2022-09-27T04:01:05.325Z,11.35
2022-09-27T04:04:11.247Z,11.13
2022-09-27T04:07:13.352Z,11.13
2022-09-27T04:10:15.748Z,11.25
2022-09-27T04:13:17.694Z,11.16
2022-09-27T04:16:27.528Z,11.07
2022-09-27T04:19:49.463Z,11.16
2022-09-27T04:22:51.181Z,11.19
2022-09-27T04:25:52.822Z,11.18
2022-09-27T04:29:05.745Z,11.13
2022-09-27T04:32:13.033Z,11.29
2022-09-27T04:35:52.982Z,11.29
2022-09-27T04:38:56.329Z,11.30
2022-09-27T04:41:57.809Z,11.27
2022-09-27T04:44:59.440Z,11.37
2022-09-27T04:48:01.048Z,11.31
2022-09-27T04:51:03.683Z,11.30
2022-09-27T04:54:05.289Z,11.36
2022-09-27T04:57:12.137Z,11.29
2022-09-27T05:00:15.093Z,11.27
2022-09-27T05:03:19.441Z,11.32
2022-09-27T05:06:30.454Z,11.32
2022-09-27T05:09:39.498Z,11.32
2022-09-27T05:12:41.169Z,11.36
2022-09-27T05:15:42.782Z,11.23
2022-09-27T05:19:07.057Z,11.38
2022-09-27T05:22:40.768Z,11.28
2022-09-27T05:25:43.024Z,11.31
2022-09-27T05:28:45.960Z,11.10
2022-09-27T05:31:47.411Z,11.19
2022-09-27T05:34:49.184Z,11.26
2022-09-27T05:37:58.725Z,11.23
2022-09-27T05:41:03.932Z,11.11
2022-09-27T05:44:05.891Z,11.14
2022-09-27T05:47:08.206Z,11.11
2022-09-27T05:50:09.789Z,11.15
2022-09-27T05:53:11.590Z,11.07
2022-09-27T05:56:13.158Z,11.11
2022-09-27T05:59:34.669Z,11.17
2022-09-27T06:02:56.651Z,11.11
2022-09-27T06:06:16.874Z,11.19
2022-09-27T06:09:26.992Z,11.17
2022-09-27T06:12:28.465Z,11.16
2022-09-27T06:15:31.828Z,11.17
2022-09-27T06:18:33.948Z,11.16
2022-09-27T06:21:35.855Z,11.11
2022-09-27T06:24:37.412Z,11.17
2022-09-27T06:27:44.782Z,11.09
2022-09-27T06:30:55.890Z,11.09
2022-09-27T06:34:17.560Z,11.11
2022-09-27T06:37:19.149Z,11.10
2022-09-27T06:40:20.795Z,11.19
2022-09-27T06:43:49.407Z,11.17
2022-09-27T06:47:27.200Z,11.15
2022-09-27T06:50:49.093Z,11.15
2022-09-27T06:53:50.740Z,11.15
2022-09-27T06:56:52.229Z,11.07
2022-09-27T07:00:12.293Z,11.10
2022-09-27T07:03:43.034Z,11.07
2022-09-27T07:06:53.639Z,11.06
2022-09-27T07:09:57.770Z,10.96
2022-09-27T07:13:07.979Z,10.97
2022-09-27T07:16:15.990Z,11.05
2022-09-27T07:19:18.281Z,11.11
2022-09-27T07:22:20.730Z,11.23
2022-09-27T07:25:27.964Z,11.29
2022-09-27T07:28:30.076Z,11.27
2022-09-27T07:31:32.526Z,11.23
2022-09-27T07:34:34.088Z,11.27
2022-09-27T07:37:37.525Z,11.32
2022-09-27T07:40:40.202Z,11.30
2022-09-27T07:43:44.355Z,11.34
2022-09-27T07:46:46.088Z,11.41
2022-09-27T07:49:57.277Z,11.46
2022-09-27T07:53:24.782Z,11.35
2022-09-27T07:56:32.995Z,11.37
2022-09-27T07:59:35.010Z,11.43
2022-09-27T08:02:37.863Z,11.37
2022-09-27T08:05:39.417Z,11.32
2022-09-27T08:08:41.486Z,11.30
2022-09-27T08:11:44.751Z,11.39
2022-09-27T08:14:48.549Z,11.51
2022-09-27T08:17:50.802Z,11.38
2022-09-27T08:21:00.946Z,11.46
2022-09-27T08:24:37.850Z,11.59
2022-09-27T08:27:59.944Z,11.64
2022-09-27T08:31:09.508Z,11.69
2022-09-27T08:34:11.948Z,11.80
2022-09-27T08:37:13.389Z,11.81
2022-09-27T08:40:17.599Z,11.79
2022-09-27T08:43:44.317Z,11.77
2022-09-27T08:47:27.096Z,11.68
2022-09-27T08:50:39.006Z,11.76
2022-09-27T08:54:07.589Z,11.77
2022-09-27T08:57:12.698Z,11.74
2022-09-27T09:00:15.590Z,11.82
2022-09-27T09:03:20.981Z,11.82
2022-09-27T09:06:40.430Z,11.86
2022-09-27T09:10:03.098Z,11.89
2022-09-27T09:13:42.312Z,11.95
2022-09-27T09:16:57.084Z,11.98
2022-09-27T09:20:16.989Z,12.00
2022-09-27T09:23:53.732Z,12.23
2022-09-27T09:27:06.191Z,12.35
2022-09-27T09:30:24.821Z,12.58
2022-09-27T09:33:35.216Z,12.65
2022-09-27T09:36:47.437Z,12.61
2022-09-27T09:40:14.153Z,12.61
2022-09-27T09:43:48.142Z,12.52
2022-09-27T09:46:55.572Z,12.44
2022-09-27T09:50:06.929Z,12.39
2022-09-27T09:53:43.717Z,12.25
2022-09-27T09:56:53.252Z,12.02
2022-09-27T10:00:01.116Z,11.89
2022-09-27T10:03:03.706Z,11.74
2022-09-27T10:06:06.574Z,11.69
2022-09-27T10:09:11.780Z,11.50
2022-09-27T10:12:39.152Z,11.40
2022-09-27T10:15:41.082Z,11.57
2022-09-27T10:18:47.626Z,11.44
2022-09-27T10:21:53.811Z,11.37
2022-09-27T10:24:58.531Z,11.28
2022-09-27T10:28:38.053Z,11.11
2022-09-27T10:31:42.080Z,11.06
2022-09-27T10:34:51.182Z,11.08
2022-09-27T10:37:53.675Z,11.02
2022-09-27T10:41:16.633Z,11.18
2022-09-27T10:44:29.858Z,10.98
2022-09-27T10:47:52.388Z,11.06
2022-09-27T10:51:20.796Z,11.13
2022-09-27T10:54:36.354Z,11.08
2022-09-27T10:57:40.731Z,10.96
2022-09-27T11:00:58.010Z,11.11
2022-09-27T11:04:00.291Z,11.19
2022-09-27T11:07:22.024Z,11.40
2022-09-27T11:10:37.183Z,11.66
2022-09-27T11:13:41.220Z,11.74
2022-09-27T11:17:17.918Z,11.76
2022-09-27T11:20:37.040Z,11.82
2022-09-27T11:23:56.212Z,11.93
2022-09-27T11:27:25.494Z,12.04
2022-09-27T11:30:40.731Z,12.22
2022-09-27T11:34:37.264Z,12.49
2022-09-27T11:37:46.981Z,12.73
2022-09-27T11:41:16.240Z,12.88
2022-09-27T11:44:25.890Z,12.95
2022-09-27T11:47:44.090Z,13.11
2022-09-27T11:51:12.616Z,13.34
2022-09-27T11:54:39.749Z,13.18
2022-09-27T11:58:00.875Z,13.05
2022-09-27T12:01:44.645Z,13.02
2022-09-27T12:05:08.352Z,13.23
2022-09-27T12:08:53.440Z,13.40
2022-09-27T12:12:02.892Z,13.62
2022-09-27T12:15:14.130Z,13.84
2022-09-27T12:18:29.365Z,13.58
2022-09-27T12:21:34.526Z,13.29
2022-09-27T12:24:38.239Z,13.08
2022-09-27T12:28:14.257Z,12.88
2022-09-27T12:31:29.378Z,12.94
2022-09-27T12:34:40.178Z,13.25
2022-09-27T12:38:00.772Z,13.31
2022-09-27T12:41:07.402Z,13.17
2022-09-27T12:44:17.235Z,13.01
2022-09-27T12:47:44.490Z,13.00
2022-09-27T12:51:10.298Z,12.99
2022-09-27T12:54:30.121Z,12.89
2022-09-27T12:57:50.508Z,12.95
2022-09-27T13:01:07.267Z,12.98
2022-09-27T13:04:30.416Z,13.01
2022-09-27T13:08:21.674Z,12.99
2022-09-27T13:11:51.044Z,13.03
2022-09-27T13:15:01.875Z,13.11
2022-09-27T13:18:06.769Z,13.36
2022-09-27T13:21:51.375Z,13.66
2022-09-27T13:25:56.673Z,13.60
2022-09-27T13:29:27.538Z,13.41
2022-09-27T13:32:31.415Z,13.36
2022-09-27T13:35:33.398Z,13.40
2022-09-27T13:39:06.076Z,13.37
2022-09-27T13:42:34.080Z,13.26
2022-09-27T13:45:57.401Z,13.26
2022-09-27T13:49:21.317Z,13.02
2022-09-27T13:53:02.788Z,13.09
2022-09-27T13:56:06.334Z,13.07
2022-09-27T13:59:20.068Z,13.31
2022-09-27T14:02:42.213Z,13.36
2022-09-27T14:06:03.485Z,13.22
2022-09-27T14:09:18.699Z,13.03
2022-09-27T14:12:31.970Z,13.04
2022-09-27T14:15:35.429Z,13.03
2022-09-27T14:18:45.629Z,13.26
2022-09-27T14:21:48.425Z,13.15
2022-09-27T14:25:03.038Z,13.31
2022-09-27T14:28:20.309Z,13.16
2022-09-27T14:31:32.023Z,12.98
2022-09-27T14:34:46.558Z,12.84
2022-09-27T14:37:52.640Z,12.81
2022-09-27T14:40:59.593Z,12.62
2022-09-27T14:44:01.448Z,12.62
2022-09-27T14:47:23.668Z,12.60
2022-09-27T14:50:28.938Z,12.58
2022-09-27T14:53:35.909Z,12.55
2022-09-27T14:56:38.256Z,12.64
2022-09-27T14:59:44.498Z,12.70
2022-09-27T15:02:46.727Z,12.67
2022-09-27T15:05:48.266Z,12.60
2022-09-27T15:08:50.250Z,12.68
2022-09-27T15:12:00.149Z,12.67
2022-09-27T15:15:01.887Z,12.70
2022-09-27T15:18:04.099Z,12.74
2022-09-27T15:21:06.504Z,12.75
2022-09-27T15:24:36.452Z,12.84
2022-09-27T15:27:38.659Z,12.77
2022-09-27T15:30:53.173Z,12.71
2022-09-27T15:33:58.441Z,12.65
2022-09-27T15:37:06.125Z,12.64
2022-09-27T15:40:17.450Z,12.71
2022-09-27T15:43:52.931Z,12.60
2022-09-27T15:46:54.356Z,12.47
2022-09-27T15:49:55.712Z,12.58
2022-09-27T15:52:57.513Z,12.46
2022-09-27T15:55:59.385Z,12.54
2022-09-27T15:59:01.532Z,12.53
2022-09-27T16:02:09.995Z,12.53
2022-09-27T16:05:12.242Z,12.54
2022-09-27T16:08:13.665Z,12.37
2022-09-27T16:11:17.342Z,12.12
2022-09-27T16:14:19.715Z,12.17
2022-09-27T16:17:21.082Z,12.13
2022-09-27T16:20:26.330Z,11.93
2022-09-27T16:23:28.064Z,11.94
2022-09-27T16:26:29.703Z,12.06
2022-09-27T16:29:31.071Z,12.13
2022-09-27T16:32:32.665Z,12.12
2022-09-27T16:35:34.208Z,11.96
2022-09-27T16:38:35.726Z,12.00
2022-09-27T16:41:37.211Z,12.07
2022-09-27T16:44:38.606Z,11.99
2022-09-27T16:47:39.977Z,11.90
2022-09-27T16:51:07.526Z,11.93
2022-09-27T16:54:08.959Z,11.81
2022-09-27T16:57:10.715Z,11.72
2022-09-27T17:00:12.699Z,11.75
2022-09-27T17:03:14.285Z,11.77
2022-09-27T17:06:17.624Z,11.66
2022-09-27T17:09:21.110Z,11.65
2022-09-27T17:12:22.874Z,11.66
2022-09-27T17:15:24.267Z,11.64
2022-09-27T17:18:25.635Z,11.73
2022-09-27T17:21:26.996Z,11.54
2022-09-27T17:24:28.396Z,11.51
2022-09-27T17:27:29.936Z,11.37
2022-09-27T17:30:31.583Z,11.41
2022-09-27T17:33:33.031Z,11.35
2022-09-27T17:36:35.477Z,11.31
2022-09-27T17:39:37.745Z,11.40
2022-09-27T17:42:39.232Z,11.29
2022-09-27T17:45:40.598Z,11.23
2022-09-27T17:49:00.448Z,11.31
2022-09-27T17:52:01.973Z,11.22
2022-09-27T17:55:03.615Z,11.22
2022-09-27T17:58:06.229Z,11.12
2022-09-27T18:01:07.686Z,11.08
2022-09-27T18:04:10.678Z,11.21
2022-09-27T18:07:15.010Z,11.09
2022-09-27T18:10:17.622Z,11.10
2022-09-27T18:13:18.982Z,11.13
2022-09-27T18:16:20.492Z,11.12
2022-09-27T18:19:21.889Z,11.02
2022-09-27T18:22:29.258Z,11.03
2022-09-27T18:25:30.657Z,11.01
2022-09-27T18:28:32.088Z,10.96
2022-09-27T18:31:33.886Z,10.93
2022-09-27T18:34:35.272Z,11.00
2022-09-27T18:37:36.629Z,10.88
2022-09-27T18:40:55.699Z,10.83
2022-09-27T18:44:00.874Z,10.82
2022-09-27T18:47:02.388Z,10.77
2022-09-27T18:50:04.183Z,10.82
2022-09-27T18:53:05.611Z,10.82
2022-09-27T18:56:09.636Z,10.79
2022-09-27T18:59:11.287Z,10.74
2022-09-27T19:02:12.739Z,10.85
2022-09-27T19:05:14.206Z,10.82
2022-09-27T19:08:15.579Z,10.82
2022-09-27T19:11:18.388Z,10.76
2022-09-27T19:14:22.291Z,10.75
2022-09-27T19:17:23.677Z,10.84
2022-09-27T19:20:25.055Z,10.87
2022-09-27T19:23:26.457Z,10.88
2022-09-27T19:26:28.375Z,10.94
2022-09-27T19:29:29.853Z,10.84
2022-09-27T19:32:31.273Z,10.83
2022-09-27T19:35:32.746Z,10.83
2022-09-27T19:38:35.828Z,10.86
2022-09-27T19:41:37.506Z,10.85
2022-09-27T19:44:38.867Z,10.91
2022-09-27T19:47:40.322Z,10.88
2022-09-27T19:50:41.711Z,10.88
2022-09-27T19:53:43.239Z,10.87
2022-09-27T19:56:44.627Z,10.95
2022-09-27T19:59:46.096Z,10.88
2022-09-27T20:02:47.644Z,10.94
2022-09-27T20:05:56.479Z,10.99
2022-09-27T20:08:58.496Z,10.99
2022-09-27T20:11:59.880Z,10.95
2022-09-27T20:15:01.297Z,10.81
2022-09-27T20:18:07.157Z,10.78
2022-09-27T20:21:11.305Z,10.76
2022-09-27T20:24:12.869Z,10.83
2022-09-27T20:27:14.243Z,10.92
2022-09-27T20:30:15.782Z,10.86
2022-09-27T20:33:35.829Z,10.92
2022-09-27T20:36:39.772Z,10.85
2022-09-27T20:39:41.182Z,10.84
2022-09-27T20:42:42.566Z,10.89
2022-09-27T20:45:44.291Z,10.90
2022-09-27T20:48:50.025Z,10.91
2022-09-27T20:51:51.477Z,10.95
2022-09-27T20:54:52.911Z,10.93
2022-09-27T20:57:57.738Z,10.93
2022-09-27T21:01:06.689Z,10.94
2022-09-27T21:04:09.261Z,10.96
2022-09-27T21:07:10.659Z,10.91
2022-09-27T21:10:12.066Z,10.90
2022-09-27T21:13:13.434Z,10.88
2022-09-27T21:16:25.871Z,10.91
2022-09-27T21:19:29.196Z,10.90
2022-09-27T21:22:30.659Z,10.89
2022-09-27T21:25:32.034Z,10.86
2022-09-27T21:28:41.438Z,10.94
2022-09-27T21:31:43.089Z,10.90
2022-09-27T21:34:44.833Z,10.90
2022-09-27T21:37:47.565Z,10.85
2022-09-27T21:41:03.338Z,10.91
2022-09-27T21:44:05.820Z,10.87
2022-09-27T21:47:07.271Z,10.89
2022-09-27T21:50:08.810Z,10.90
2022-09-27T21:53:10.181Z,10.88
2022-09-27T21:56:11.896Z,10.92
2022-09-27T21:59:15.347Z,10.85
2022-09-27T22:02:19.313Z,10.83
2022-09-27T22:05:20.833Z,10.80
2022-09-27T22:08:22.196Z,10.69
2022-09-27T22:11:26.350Z,10.72
2022-09-27T22:14:27.730Z,10.69
2022-09-27T22:17:29.204Z,10.66
2022-09-27T22:20:31.641Z,10.69
2022-09-27T22:23:33.500Z,10.70
2022-09-27T22:26:37.820Z,10.77
2022-09-27T22:29:39.195Z,10.70
2022-09-27T22:32:45.085Z,10.78
2022-09-27T22:35:47.433Z,10.83
2022-09-27T22:38:49.781Z,10.83
2022-09-27T22:41:51.226Z,10.86
2022-09-27T22:44:52.750Z,10.92
2022-09-27T22:47:54.135Z,10.94
2022-09-27T22:50:56.986Z,10.90
2022-09-27T22:53:58.370Z,10.91
2022-09-27T22:56:59.747Z,10.90
2022-09-27T23:00:01.590Z,10.93
2022-09-27T23:03:03.018Z,10.93
2022-09-27T23:06:06.949Z,10.93
2022-09-27T23:09:09.424Z,10.93
2022-09-27T23:12:10.961Z,11.03
2022-09-27T23:15:16.077Z,11.07
2022-09-27T23:18:17.450Z,11.02
2022-09-27T23:21:18.830Z,11.09
2022-09-27T23:24:20.195Z,11.05
2022-09-27T23:27:40.254Z,11.02
2022-09-27T23:30:41.805Z,11.09
2022-09-27T23:33:46.222Z,11.06
2022-09-27T23:36:47.699Z,11.09
2022-09-27T23:39:49.166Z,11.08
2022-09-27T23:42:52.195Z,11.10
2022-09-27T23:45:57.141Z,11.08
2022-09-27T23:48:58.766Z,11.10
2022-09-27T23:52:00.752Z,11.10
2022-09-27T23:55:02.179Z,11.08
2022-09-27T23:58:03.560Z,11.10
